Flight Track Log - Related Links

Times and Time Zones

All times are in EDT time to prevent confusion due to time zone crossing. See the SWA143 flight status page for this flight to view local times or setup timezone preferences in your user account.

Time Position Orientation Groundspeed Altitude Reporting Facility
EDT Latitude Longitude Course Direction KTS MPH feet Rate Location/Type
Fri 05:53:43 PM 33.4333 -112.0500 273° West 186 214 2,000  Level Phoenix TRACON
Fri 05:55:08 PM 33.4058 -112.1289 247° West 230 265 4,600 2,473 Climbing Albuquerque Center
Fri 05:56:11 PM 33.3825 -112.2153 252° West 267 307 8,100 3,000 Climbing Albuquerque Center
Fri 05:57:12 PM 33.3897 -112.3225 275° West 290 334 10,800 2,016 Climbing Albuquerque Center
Fri 05:58:16 PM 33.4256 -112.4208 294° West 318 366 12,300 1,935 Climbing Albuquerque Center
Fri 05:59:00 PM 33.4454 -112.6801 273° West  Level FlightAware
Fri 05:59:16 PM 33.4486 -112.5331 284° West 345 397 14,800  Level Albuquerque Center
Fri 06:00:17 PM 33.4503 -112.6625 271° West 351 404 17,100 2,112 Climbing Albuquerque Center
Fri 06:01:21 PM 33.4531 -112.7825 272° West 357 411 19,200 1,694 Climbing Albuquerque Center
Fri 06:02:21 PM 33.4675 -112.9022 278° West 363 418 20,600 1,623 Climbing Albuquerque Center
Fri 06:03:23 PM 33.4931 -113.0275 284° West 382 440 22,500 1,742 Climbing Albuquerque Center
Fri 06:04:25 PM 33.5169 -113.1500 283° West 383 441 24,200 1,476 Climbing Albuquerque Center
Fri 06:05:29 PM 33.5400 -113.2747 283° West 383 441 25,600 1,440 Climbing Albuquerque Center
Fri 06:06:30 PM 33.5686 -113.4286 283° West 393 452 27,200 1,131 Climbing Albuquerque Center
Fri 06:07:31 PM 33.5931 -113.5581 283° West 397 457 27,900 829 Climbing Albuquerque Center
Fri 06:08:33 PM 33.6172 -113.6853 283° West 414 476 28,900 1,073 Climbing Albuquerque Center
Fri 06:09:34 PM 33.6419 -113.8228 282° West 422 486 30,100 528 Climbing Albuquerque Center
Fri 06:10:38 PM 33.6736 -113.9922 283° West 430 495 30,000 -48 Descending Albuquerque Center
Fri 06:11:39 PM 33.6992 -114.1311 283° West 428 493 30,000  Level Albuquerque Center
Fri 06:12:46 PM 33.7136 -114.2850 276° West 416 479 30,000  Level Los Center
Fri 06:13:48 PM 33.7256 -114.4231 276° West 415 478 30,000  Level Los Center
Fri 06:14:50 PM 33.7375 -114.5606 276° West 415 478 30,000  Level Los Center
Fri 06:15:53 PM 33.7472 -114.6994 275° West 419 482 30,000  Level Los Center
Fri 06:16:55 PM 33.7606 -114.8653 276° West 417 480 30,000  Level Los Center
Fri 06:17:57 PM 33.7706 -115.0044 275° West 420 483 30,000  Level Los Center
Fri 06:18:59 PM 33.7822 -115.1436 276° West 420 483 30,000  Level Los Center
Fri 06:20:01 PM 33.7914 -115.2817 275° West 418 481 30,000  Level Los Center
Fri 06:21:03 PM 33.8017 -115.4183 275° West 413 475 30,000 -48 Level Los Center
Fri 06:22:05 PM 33.8125 -115.5831 275° West 414 476 29,900 -726 Descending Los Center
Fri 06:23:07 PM 33.8228 -115.7203 275° West 415 478 28,500 -1,152 Descending Los Center
Fri 06:24:10 PM 33.8319 -115.8517 275° West 402 463 27,500 -1,008 Descending Los Center
Fri 06:25:12 PM 33.8397 -115.9800 274° West 391 450 26,400 -1,016 Descending Los Center
Fri 06:26:14 PM 33.8494 -116.1042 275° West 379 436 25,400 -1,056 Descending Los Center
Fri 06:27:17 PM 33.8586 -116.2528 274° West 372 428 24,200 -1,500 Descending Los Center
Fri 06:28:18 PM 33.8664 -116.3719 275° West 361 415 22,300 -1,902 Descending Los Center
Fri 06:29:20 PM 33.8731 -116.4881 274° West 352 405 20,300 -1,935 Descending Los Center
Fri 06:30:22 PM 33.8792 -116.6025 274° West 346 398 18,300 -1,984 Descending Los Center
Fri 06:31:24 PM 33.8839 -116.7150 273° West 340 391 16,200 -1,920 Descending Los Center
Fri 06:32:27 PM 33.8889 -116.8264 273° West 337 388 14,300 -1,920 Descending Los Center
Fri 06:33:29 PM 33.9231 -116.9500 288° West 329 379 12,200 -2,260 Descending Los Center
Fri 06:33:44 PM 33.9333 -116.9833 290° West 323 372 11,400 -1,760 Descending Southern TRACON
Fri 06:34:44 PM 33.9667 -117.0833 292° West 303 349 10,000 -1,050 Descending Southern TRACON
Fri 06:35:44 PM 33.9833 -117.1667 284° West 243 280 9,300 -1,250 Descending Southern TRACON
Fri 06:36:44 PM 34.0167 -117.2333 301° West 239 275 7,500 -1,650 Descending Southern TRACON
Fri 06:37:44 PM 34.0333 -117.3000 287° West 227 261 6,000 -1,450 Descending Southern TRACON
Fri 06:38:44 PM 34.0500 -117.3667 287° West 210 242 4,600 -1,289 Descending Southern TRACON
Fri 06:39:45 PM 34.0500 -117.4333 270° West 194 223 3,400 -1,190 Descending Southern TRACON
Fri 06:40:45 PM 34.0500 -117.5000 270° West 179 206 2,200 -950 Descending Southern TRACON
Fri 06:41:45 PM 34.0500 -117.5500 270° West 141 162 1,500 -700 Descending Southern TRACON
Fri 06:43:00 PM 34.0500 -117.6000 276° West  Level FlightAware
Fri 06:50:00 PM 34.0560 -117.6012 276° West  Level Estimated

Login

Don't have an account? Register now (free) for customized features, flight alerts, and more!